This is the latest recevied weather packets stored in our database for station/object KE4LOJ. If no packets are shown the sender has not sent any weather packets the latest 1 day(s).
| Time | Temp. | Humidity | Pressure | Rain* | Wind** | Luminosity | Snow |
|---|---|---|---|---|---|---|---|
| 1778076957 | 26.67° C | 71% | 1018 hPa | 0 mm | - | 468 W/m² | - |
| 1778073624 | 24.44° C | 81% | 1018.2 hPa | 0 mm | - | 121 W/m² | - |
| 1778073321 | 23.89° C | 82% | 1018 hPa | 0 mm | - | 133 W/m² | - |
| 1778072412 | 23.33° C | 84% | 1017.7 hPa | 0 mm | - | 125 W/m² | - |
| 1778072110 | 23.33° C | 85% | 1017.8 hPa | 0 mm | - | 103 W/m² | - |
| 1778071505 | 22.78° C | 85% | 1017.6 hPa | 0 mm | - | 81 W/m² | - |
| 1778070598 | 22.22° C | 88% | 1017.5 hPa | 0 mm | - | 71 W/m² | - |
| 1778069993 | 21.67° C | 89% | 1017.3 hPa | 0 mm | - | 73 W/m² | - |
| 1778069084 | 20° C | 91% | 1017.5 hPa | 0 mm | - | 70 W/m² | - |
| 1778068177 | 19.44° C | 95% | 1017.4 hPa | 0 mm | - | 60 W/m² | - |
| 1778067573 | 18.89° C | 96% | 1017.1 hPa | 0 mm | - | 51 W/m² | - |
| 1778064242 | 17.22° C | 95% | 1016.6 hPa | 0 mm | - | 3 W/m² | - |
| 1778063032 | 17.22° C | 95% | 1016.8 hPa | 0 mm | - | 0 W/m² | - |
| 1778061821 | 17.22° C | 95% | 1016.7 hPa | 0 mm | - | 0 W/m² | - |
| 1778061519 | 17.22° C | 95% | 1016.6 hPa | 0 mm | - | 0 W/m² | - |
| 1778060006 | 17.22° C | 94% | 1016.7 hPa | 0 mm | - | 0 W/m² | - |
| 1778059704 | 17.22° C | 94% | 1016.3 hPa | 0 mm | - | 0 W/m² | - |
| 1778059098 | 17.22° C | 94% | 1016.3 hPa | 0 mm | - | 0 W/m² | - |
| 1778058796 | 17.22° C | 94% | 1016.2 hPa | 0 mm | - | 0 W/m² | - |
| 1778057887 | 17.22° C | 94% | 1016.2 hPa | 0 mm | - | 0 W/m² | - |
| 1778057583 | 17.22° C | 94% | 1016.3 hPa | 0 mm | - | 0 W/m² | - |
| 1778057280 | 17.22° C | 94% | 1016.3 hPa | 0 mm | - | 0 W/m² | - |
| 1778056976 | 17.22° C | 94% | 1016.2 hPa | 0 mm | - | 0 W/m² | - |
| 1778056371 | 17.22° C | 94% | 1016.2 hPa | 0 mm | - | 0 W/m² | - |
| 1778056068 | 17.22° C | 94% | 1016.1 hPa | 0 mm | - | 0 W/m² | - |
* Rain latest hour (hover to see other rain measurements)
** Current wind speed in m/s (hover to see current wind gust speed)